createdAt,value
2018-11-21T00:04:16.904Z,12.73
2018-11-21T00:09:44.485Z,15.97
2018-11-21T00:15:12.308Z,14.80
2018-11-21T00:20:40.828Z,14.27
2018-11-21T00:26:08.459Z,14.80
2018-11-21T00:28:49.970Z,14.97
2018-11-21T00:34:18.043Z,15.70
2018-11-21T00:39:45.698Z,16.07
2018-11-21T00:45:13.997Z,13.83
2018-11-21T00:47:55.913Z,12.50
2018-11-21T00:53:23.098Z,16.37
2018-11-21T00:58:50.619Z,14.53
2018-11-21T01:04:18.135Z,11.77
2018-11-21T01:09:45.459Z,13.53
2018-11-21T01:15:13.771Z,14.73
2018-11-21T01:20:41.936Z,13.97
2018-11-21T01:26:36.252Z,14.13
2018-11-21T01:32:04.138Z,14.07
2018-11-21T01:37:32.348Z,15.90
2018-11-21T01:42:59.682Z,13.60
2018-11-21T01:45:41.851Z,14.53
2018-11-21T01:51:09.854Z,13.80
2018-11-21T01:56:36.836Z,14.83
2018-11-21T02:02:05.553Z,15.43
2018-11-21T02:07:32.209Z,14.50
2018-11-21T02:13:00.731Z,16.07
2018-11-21T02:18:29.136Z,14.70
2018-11-21T02:23:57.132Z,13.37
2018-11-21T02:32:32.457Z,12.43
2018-11-21T02:35:13.881Z,12.20
2018-11-21T02:40:42.218Z,13.33
2018-11-21T02:46:09.823Z,12.63
2018-11-21T02:51:36.794Z,14.73
2018-11-21T02:54:18.255Z,10.73
2018-11-21T02:59:47.256Z,12.97
2018-11-21T03:05:34.227Z,14.63
2018-11-21T03:08:15.904Z,13.03
2018-11-21T03:13:43.635Z,12.60
2018-11-21T03:19:10.901Z,10.40
2018-11-21T03:24:38.878Z,12.70
2018-11-21T03:30:06.588Z,12.37
2018-11-21T03:35:33.957Z,10.73
2018-11-21T03:41:02.412Z,10.87
2018-11-21T03:46:29.639Z,12.40
2018-11-21T03:51:57.347Z,12.57
2018-11-21T03:57:24.699Z,13.20
2018-11-21T04:02:52.871Z,10.33
2018-11-21T04:08:47.406Z,11.70
2018-11-21T04:14:15.313Z,12.77
2018-11-21T04:19:42.357Z,10.50
2018-11-21T04:25:10.022Z,11.27
2018-11-21T04:30:37.385Z,11.03
2018-11-21T04:33:19.250Z,10.33
2018-11-21T04:38:46.662Z,14.20
2018-11-21T04:44:14.870Z,9.37
2018-11-21T04:49:42.693Z,9.43
2018-11-21T04:55:10.462Z,14.23
2018-11-21T05:03:43.851Z,10.20
2018-11-21T05:09:10.948Z,11.93
2018-11-21T05:14:38.594Z,10.37
2018-11-21T05:20:06.466Z,11.73
2018-11-21T05:25:34.501Z,12.93
2018-11-21T05:34:07.185Z,10.23
2018-11-21T05:39:34.837Z,10.90
2018-11-21T05:45:02.877Z,11.47
2018-11-21T05:50:30.250Z,11.43
2018-11-21T05:55:58.466Z,11.70
2018-11-21T06:01:25.951Z,11.07
2018-11-21T06:06:53.355Z,9.57
2018-11-21T06:09:35.710Z,11.57
2018-11-21T06:12:16.924Z,11.57
2018-11-21T06:17:48.092Z,9.00
2018-11-21T06:23:13.302Z,10.97
2018-11-21T06:28:40.949Z,9.50
2018-11-21T06:34:08.837Z,8.80
2018-11-21T06:39:36.475Z,9.17
2018-11-21T06:48:09.996Z,8.57
2018-11-21T06:53:37.713Z,8.30
2018-11-21T06:59:06.003Z,9.93
2018-11-21T07:04:33.426Z,8.60
2018-11-21T07:10:01.104Z,11.33
2018-11-21T07:12:44.886Z,11.13
2018-11-21T07:15:28.860Z,11.20
2018-11-21T07:20:59.005Z,11.90
2018-11-21T07:26:28.345Z,13.13
2018-11-21T07:31:55.933Z,17.20
2018-11-21T07:37:23.344Z,13.93
2018-11-21T07:42:51.469Z,10.63
2018-11-21T07:48:20.504Z,12.07
2018-11-21T07:53:46.553Z,16.43
2018-11-21T07:59:14.493Z,18.90
2018-11-21T08:04:42.271Z,15.10
2018-11-21T08:10:10.132Z,12.93
2018-11-21T08:15:38.430Z,14.20
2018-11-21T08:21:05.608Z,14.57
2018-11-21T08:26:33.211Z,14.90
2018-11-21T08:32:01.613Z,30.07
2018-11-21T08:37:29.438Z,31.57
2018-11-21T08:42:57.124Z,34.43
2018-11-21T08:48:24.285Z,46.00
2018-11-21T08:51:06.201Z,44.07
2018-11-21T08:57:00.796Z,34.90
2018-11-21T09:02:55.592Z,41.50
2018-11-21T09:08:34.746Z,44.93
2018-11-21T09:14:03.253Z,48.27
2018-11-21T09:19:31.139Z,37.37
2018-11-21T09:24:58.844Z,31.90
2018-11-21T09:30:26.525Z,38.67
2018-11-21T09:36:20.697Z,36.30
2018-11-21T09:41:48.664Z,30.73
2018-11-21T09:47:16.092Z,29.03
2018-11-21T09:52:43.505Z,31.23
2018-11-21T09:55:24.940Z,29.40
2018-11-21T10:04:00.956Z,26.97
2018-11-21T10:06:39.879Z,29.30
2018-11-21T10:09:21.631Z,25.17
2018-11-21T10:14:48.935Z,25.00
2018-11-21T10:23:22.453Z,23.70
2018-11-21T10:28:50.253Z,27.50
2018-11-21T10:34:17.944Z,24.93
2018-11-21T10:39:45.378Z,23.77
2018-11-21T10:45:39.285Z,22.87
2018-11-21T10:51:06.906Z,24.67
2018-11-21T10:56:34.141Z,22.27
2018-11-21T11:02:01.067Z,26.13
2018-11-21T11:07:28.750Z,22.70
2018-11-21T11:12:56.524Z,23.10
2018-11-21T11:15:37.988Z,22.87
2018-11-21T11:24:11.109Z,22.10
2018-11-21T11:30:04.438Z,20.17
2018-11-21T11:35:31.850Z,21.93
2018-11-21T11:40:59.661Z,21.67
2018-11-21T11:46:26.191Z,23.77
2018-11-21T11:49:08.079Z,25.77
2018-11-21T11:51:49.716Z,25.10
2018-11-21T11:57:17.694Z,22.27
2018-11-21T11:59:59.508Z,24.83
2018-11-21T12:05:27.653Z,19.07
2018-11-21T12:10:56.829Z,20.10
2018-11-21T12:16:24.316Z,23.13
2018-11-21T12:21:51.890Z,21.17
2018-11-21T12:27:21.100Z,21.90
2018-11-21T12:32:48.667Z,22.97
2018-11-21T12:38:17.592Z,21.53
2018-11-21T12:43:47.668Z,23.30
2018-11-21T12:49:15.233Z,20.93
2018-11-21T12:54:41.808Z,20.83
2018-11-21T12:57:23.357Z,23.97
2018-11-21T13:02:50.913Z,22.57
2018-11-21T13:08:19.209Z,22.27
2018-11-21T13:13:47.160Z,21.63
2018-11-21T13:19:15.054Z,22.83
2018-11-21T13:22:18.552Z,21.30
2018-11-21T13:25:05.122Z,20.37
2018-11-21T13:28:12.937Z,22.07
2018-11-21T13:30:54.538Z,21.53
2018-11-21T13:36:22.693Z,20.73
2018-11-21T13:39:04.353Z,21.27
2018-11-21T13:41:45.800Z,22.87
2018-11-21T13:47:33.493Z,21.37
2018-11-21T13:53:01.133Z,21.37
2018-11-21T13:55:43.010Z,21.20
2018-11-21T14:01:10.967Z,24.43
2018-11-21T14:06:38.725Z,20.60
2018-11-21T14:12:06.873Z,23.20
2018-11-21T14:17:34.772Z,23.87
2018-11-21T14:23:02.728Z,26.43
2018-11-21T14:28:30.272Z,23.40
2018-11-21T14:33:58.109Z,22.90
2018-11-21T14:39:25.439Z,20.83
2018-11-21T14:44:52.177Z,20.77
2018-11-21T14:50:20.052Z,19.63
2018-11-21T14:53:01.379Z,20.93
2018-11-21T14:58:29.811Z,22.57
